Time;durP1;ratioP1;P1;durP2;ratioP2;P2;SDS_P1;SDS_P2;PMS_P1;PMS_P2;Temp;Humidity;BMP_temperature;BMP_pressure;BME280_temperature;BME280_humidity;BME280_pressure;Samples;Min_cycle;Max_cycle;Signal;HPM_P1;HPM_P2
2023/01/19 00:01:13;;;;;;;13.15;7.60;;;-6.80;99.90;;;;;;4078762;29;20268;-63
2023/01/19 00:03:17;;;;;;;16.17;7.23;;;-6.80;99.90;;;;;;4079482;29;20715;-63
2023/01/19 00:05:17;;;;;;;13.50;7.25;;;-6.90;99.90;;;;;;4095943;28;20206;-64
2023/01/19 00:07:18;;;;;;;13.27;7.60;;;-6.90;99.90;;;;;;4095919;29;20203;-63
2023/01/19 00:09:21;;;;;;;11.80;7.40;;;-6.90;99.90;;;;;;4095942;29;20188;-63
2023/01/19 00:11:22;;;;;;;11.43;6.68;;;-7.00;99.90;;;;;;4095449;29;20256;-63
2023/01/19 00:13:22;;;;;;;11.57;6.20;;;-7.00;99.90;;;;;;4077890;29;20275;-63
2023/01/19 00:15:23;;;;;;;12.57;6.50;;;-7.00;99.90;;;;;;4095348;29;20188;-63
2023/01/19 00:17:23;;;;;;;16.27;7.47;;;-7.00;99.90;;;;;;4078355;29;20258;-62
2023/01/19 00:19:24;;;;;;;14.17;6.93;;;-7.10;99.90;;;;;;4095418;28;20194;-62
2023/01/19 00:21:25;;;;;;;15.23;7.47;;;-7.10;99.90;;;;;;4094828;29;20702;-63
2023/01/19 00:23:25;;;;;;;15.57;7.83;;;-7.10;99.90;;;;;;4094927;29;20210;-63
2023/01/19 00:25:26;;;;;;;14.87;7.00;;;-7.10;99.90;;;;;;4095375;29;20228;-65
2023/01/19 00:27:29;;;;;;;12.30;7.63;;;-7.00;99.90;;;;;;4095059;29;20582;-64
2023/01/19 00:29:32;;;;;;;14.32;7.63;;;-7.10;99.90;;;;;;4095213;29;20187;-63
2023/01/19 00:31:35;;;;;;;17.10;7.93;;;-7.20;99.90;;;;;;4078062;29;20263;-61
2023/01/19 00:33:36;;;;;;;15.60;8.07;;;-7.10;99.90;;;;;;4062484;28;20260;-63
2023/01/19 00:35:36;;;;;;;17.17;7.28;;;-7.20;99.90;;;;;;4101420;28;20195;-63
2023/01/19 00:37:37;;;;;;;16.77;8.40;;;-7.10;99.90;;;;;;4162050;28;20238;-63
2023/01/19 00:39:38;;;;;;;11.13;6.57;;;-6.90;99.90;;;;;;4165200;28;20180;-64
2023/01/19 00:43:57;;;;;;;14.55;7.07;;;-6.80;99.90;;;;;;4149904;28;20211;-62
2023/01/19 00:45:58;;;;;;;16.97;8.50;;;-6.80;99.90;;;;;;4164960;28;20204;-63
2023/01/19 00:47:59;;;;;;;13.17;7.07;;;-6.80;99.90;;;;;;4164912;28;20311;-63
2023/01/19 00:49:59;;;;;;;14.67;8.47;;;-6.80;99.90;;;;;;4164733;28;20704;-62
2023/01/19 00:52:00;;;;;;;19.33;8.97;;;-6.90;99.90;;;;;;4164933;28;20192;-62
2023/01/19 00:54:03;;;;;;;20.00;10.63;;;-6.90;99.90;;;;;;4164752;28;20224;-63
2023/01/19 00:56:05;;;;;;;18.08;9.43;;;-7.00;99.90;;;;;;4164961;28;20275;-61
2023/01/19 00:58:06;;;;;;;14.05;8.52;;;-7.10;99.90;;;;;;4164955;28;20598;-63
2023/01/19 01:00:14;;;;;;;17.83;8.82;;;-7.10;99.90;;;;;;4164778;28;20736;-63
2023/01/19 01:02:14;;;;;;;15.30;9.20;;;-7.20;99.90;;;;;;4164770;28;20192;-63
2023/01/19 01:04:15;;;;;;;15.40;8.20;;;-7.20;99.90;;;;;;4164435;28;20697;-63
2023/01/19 01:06:15;;;;;;;14.93;7.87;;;-7.40;99.90;;;;;;4146890;28;20555;-62
2023/01/19 01:08:16;;;;;;;20.30;8.33;;;-7.50;99.90;;;;;;4164974;28;20589;-63
2023/01/19 01:10:24;;;;;;;15.73;8.10;;;-7.50;99.90;;;;;;4147793;28;20193;-63
2023/01/19 01:12:27;;;;;;;14.50;7.22;;;-7.50;99.90;;;;;;4168771;28;20699;-62
2023/01/19 01:14:28;;;;;;;17.65;7.80;;;-7.60;99.90;;;;;;4168614;28;20196;-63
2023/01/19 01:16:29;;;;;;;12.13;7.70;;;-7.60;99.90;;;;;;4147331;28;20577;-62
2023/01/19 01:18:29;;;;;;;12.97;6.20;;;-7.70;99.90;;;;;;4165436;28;20185;-64
2023/01/19 01:20:32;;;;;;;14.00;8.23;;;-7.70;99.90;;;;;;4165488;28;20184;-64
2023/01/19 01:22:33;;;;;;;13.75;7.50;;;-7.70;99.90;;;;;;4165188;28;20177;-64
2023/01/19 01:24:34;;;;;;;12.83;7.47;;;-7.70;99.90;;;;;;4165181;28;20557;-64
2023/01/19 01:26:34;;;;;;;11.20;6.37;;;-7.70;99.90;;;;;;4147497;28;20655;-64
2023/01/19 01:28:35;;;;;;;10.63;5.63;;;-7.70;99.90;;;;;;4152484;28;20501;-64
2023/01/19 01:30:39;;;;;;;14.17;7.07;;;-7.70;99.90;;;;;;4080802;29;20184;-65
2023/01/19 01:32:41;;;;;;;16.90;6.22;;;-7.70;99.90;;;;;;4080391;29;20184;-63
2023/01/19 01:34:42;;;;;;;11.38;6.47;;;-7.70;99.90;;;;;;4097310;28;20957;-63
2023/01/19 01:36:43;;;;;;;11.60;6.13;;;-7.70;99.90;;;;;;4097368;29;20197;-63
2023/01/19 01:38:44;;;;;;;15.00;6.00;;;-7.60;99.90;;;;;;4097604;29;20222;-64
2023/01/19 01:40:44;;;;;;;17.33;7.00;;;-7.60;99.90;;;;;;4097652;29;20194;-63
2023/01/19 01:42:45;;;;;;;10.50;6.73;;;-7.40;99.90;;;;;;4096729;29;20208;-63
2023/01/19 01:44:55;;;;;;;14.70;6.80;;;-7.50;99.90;;;;;;4097044;29;20259;-63
2023/01/19 01:46:57;;;;;;;14.00;7.45;;;-7.40;99.90;;;;;;4079890;29;20894;-63
2023/01/19 01:49:06;;;;;;;11.75;6.20;;;-7.20;99.90;;;;;;4095524;29;20596;-63
2023/01/19 01:51:24;;;;;;;11.57;6.60;;;-7.20;99.90;;;;;;4097090;29;20207;-63
2023/01/19 01:53:27;;;;;;;10.80;5.65;;;-7.20;99.90;;;;;;4081485;28;20188;-61
2023/01/19 01:55:30;;;;;;;11.77;6.40;;;-7.40;99.90;;;;;;4097578;29;20673;-63
2023/01/19 01:57:31;;;;;;;14.30;7.63;;;-7.40;99.90;;;;;;4079780;29;20687;-63
2023/01/19 01:59:40;;;;;;;15.17;6.70;;;-7.40;99.90;;;;;;4096215;28;20211;-62
2023/01/19 02:04:00;;;;;;;9.90;6.10;;;-7.50;99.90;;;;;;4096692;29;20246;-63
2023/01/19 02:06:06;;;;;;;10.27;5.57;;;-7.60;99.90;;;;;;4079587;28;20191;-63
2023/01/19 02:13:19;;;;;;;9.30;5.40;;;-7.80;99.90;;;;;;4082412;29;20239;-62
2023/01/19 02:15:20;;;;;;;13.85;6.75;;;-7.80;99.90;;;;;;4097242;29;20203;-63
2023/01/19 02:17:21;;;;;;;11.63;6.30;;;-7.80;99.90;;;;;;4096784;29;20223;-61
2023/01/19 02:19:41;;;;;;;11.10;5.93;;;-7.80;99.90;;;;;;4096291;29;20195;-64
2023/01/19 02:21:57;;;;;;;12.48;5.50;;;-7.80;99.90;;;;;;4079572;29;20191;-62
2023/01/19 02:24:01;;;;;;;9.77;5.60;;;-7.70;99.90;;;;;;4096549;29;20240;-62
2023/01/19 02:26:03;;;;;;;12.27;6.13;;;-7.60;99.90;;;;;;4079771;29;20185;-62
2023/01/19 02:28:04;;;;;;;11.23;6.50;;;-7.50;99.90;;;;;;4096537;29;20688;-62
2023/01/19 02:30:07;;;;;;;10.70;6.33;;;-7.40;99.90;;;;;;4096835;29;20195;-63
2023/01/19 02:32:08;;;;;;;15.55;7.00;;;-7.40;99.90;;;;;;4127752;28;20269;-64
2023/01/19 02:34:14;;;;;;;12.67;6.27;;;-7.50;99.90;;;;;;4146298;28;20182;-63
2023/01/19 02:36:17;;;;;;;11.20;5.72;;;-7.50;99.90;;;;;;4146128;28;20472;-64
2023/01/19 02:38:19;;;;;;;8.73;5.65;;;-7.60;99.90;;;;;;4145978;28;20210;-63
2023/01/19 02:40:23;;;;;;;11.10;5.10;;;-7.70;99.90;;;;;;4163882;28;20200;-64
2023/01/19 02:42:43;;;;;;;12.68;6.20;;;-7.70;99.90;;;;;;4145988;28;20203;-63
2023/01/19 02:44:48;;;;;;;12.85;6.10;;;-7.70;99.90;;;;;;4145562;28;20188;-64
2023/01/19 02:46:49;;;;;;;13.70;5.88;;;-7.60;99.90;;;;;;4145294;28;20285;-64
2023/01/19 02:48:50;;;;;;;16.15;5.60;;;-7.50;99.90;;;;;;4163485;28;20230;-63
2023/01/19 02:50:59;;;;;;;8.90;4.77;;;-7.40;99.90;;;;;;4146820;28;20193;-63
2023/01/19 02:53:31;;;;;;;10.45;4.80;;;-7.30;99.90;;;;;;4146429;28;20169;-63
2023/01/19 02:55:33;;;;;;;11.10;5.50;;;-7.20;99.90;;;;;;4163411;28;20188;-62
2023/01/19 02:58:07;;;;;;;8.48;5.05;;;-7.20;99.90;;;;;;4163517;28;20711;-63
2023/01/19 03:00:20;;;;;;;9.00;5.30;;;-7.10;99.90;;;;;;4163774;28;20704;-63
2023/01/19 03:02:41;;;;;;;9.80;5.27;;;-7.00;99.90;;;;;;4129457;28;20285;-62
2023/01/19 03:05:40;;;;;;;9.35;5.57;;;-6.90;99.90;;;;;;4163432;28;20498;-63
2023/01/19 03:08:01;;;;;;;14.70;5.45;;;-6.90;99.90;;;;;;4163557;28;20216;-62
2023/01/19 03:10:21;;;;;;;11.40;4.73;;;-6.80;99.90;;;;;;4163137;28;20914;-62
2023/01/19 03:12:44;;;;;;;9.80;5.22;;;-6.80;99.90;;;;;;4149425;28;20424;-63
2023/01/19 03:14:47;;;;;;;9.83;5.03;;;-6.70;99.90;;;;;;4172145;28;20215;-63
2023/01/19 03:16:56;;;;;;;8.13;4.77;;;-6.70;99.90;;;;;;4163865;28;20440;-63
2023/01/19 03:19:28;;;;;;;8.43;5.07;;;-6.60;99.90;;;;;;4146551;28;20420;-63
2023/01/19 03:21:33;;;;;;;7.90;4.90;;;-6.50;99.90;;;;;;4125435;28;20535;-62
2023/01/19 03:23:36;;;;;;;7.57;4.40;;;-6.50;99.90;;;;;;4145644;28;20530;-63
2023/01/19 03:25:42;;;;;;;7.77;4.77;;;-6.20;99.90;;;;;;4131296;28;20426;-62
2023/01/19 03:27:45;;;;;;;8.27;4.63;;;-6.20;99.90;;;;;;4103418;28;20520;-63
2023/01/19 03:29:54;;;;;;;8.97;5.10;;;-6.10;99.90;;;;;;4078851;29;20456;-64
2023/01/19 03:31:58;;;;;;;10.50;4.30;;;-6.10;99.90;;;;;;4078689;29;20427;-63
2023/01/19 03:34:05;;;;;;;11.80;5.63;;;-6.00;99.90;;;;;;4095696;28;20505;-63
2023/01/19 03:36:14;;;;;;;7.27;4.40;;;-6.00;99.90;;;;;;4095835;29;20427;-64
2023/01/19 03:38:19;;;;;;;9.63;5.67;;;-6.00;99.90;;;;;;4096216;29;20540;-63
2023/01/19 03:40:22;;;;;;;10.57;5.50;;;-5.80;99.90;;;;;;4096559;29;20497;-63
2023/01/19 03:42:24;;;;;;;11.40;5.27;;;-5.80;99.90;;;;;;4079259;29;20432;-63
2023/01/19 03:44:27;;;;;;;8.00;5.00;;;-5.70;99.90;;;;;;4094337;29;20505;-62
2023/01/19 03:46:30;;;;;;;7.33;4.63;;;-5.60;99.90;;;;;;4078959;29;20424;-63
2023/01/19 03:48:32;;;;;;;8.20;5.20;;;-5.40;99.90;;;;;;4078905;28;20425;-63
2023/01/19 03:50:33;;;;;;;11.63;4.27;;;-5.20;99.90;;;;;;4078920;28;20894;-63
2023/01/19 03:52:33;;;;;;;9.27;4.97;;;-5.20;99.90;;;;;;4096078;29;20446;-63
2023/01/19 03:54:34;;;;;;;7.93;4.30;;;-5.00;99.90;;;;;;4096220;29;20188;-63
2023/01/19 03:56:35;;;;;;;6.97;3.60;;;-5.00;99.90;;;;;;4096038;29;20189;-63
2023/01/19 03:58:36;;;;;;;7.10;3.77;;;-4.80;99.90;;;;;;4077995;28;20192;-63
2023/01/19 04:00:37;;;;;;;7.37;4.13;;;-4.70;99.90;;;;;;4095927;28;20676;-63
2023/01/19 04:02:38;;;;;;;8.23;3.90;;;-4.50;99.90;;;;;;4095799;29;20215;-63
2023/01/19 04:04:39;;;;;;;7.90;4.20;;;-4.40;99.90;;;;;;4096237;29;20466;-63
2023/01/19 04:06:40;;;;;;;7.40;4.47;;;-4.40;99.90;;;;;;4078692;29;20185;-63
2023/01/19 04:08:41;;;;;;;7.17;4.23;;;-4.40;99.90;;;;;;4095615;29;20190;-63
2023/01/19 04:10:41;;;;;;;5.73;3.93;;;-4.50;99.90;;;;;;4062968;29;20472;-63
2023/01/19 04:12:42;;;;;;;7.97;4.33;;;-4.60;99.90;;;;;;4094581;29;20191;-62
2023/01/19 04:14:43;;;;;;;9.70;4.03;;;-4.60;99.90;;;;;;4078703;29;20275;-65
2023/01/19 04:16:44;;;;;;;7.10;4.03;;;-4.60;99.90;;;;;;4078474;29;20206;-63
2023/01/19 04:18:44;;;;;;;7.73;4.20;;;-4.50;99.90;;;;;;4093834;29;20216;-63
2023/01/19 04:20:45;;;;;;;8.90;4.83;;;-4.60;99.90;;;;;;4077975;29;20235;-63
2023/01/19 04:22:46;;;;;;;7.70;4.33;;;-4.60;99.90;;;;;;4094929;29;20239;-63
2023/01/19 04:24:47;;;;;;;7.47;4.10;;;-4.60;99.90;;;;;;4094818;29;20599;-63
2023/01/19 04:26:52;;;;;;;9.10;4.17;;;-4.70;99.90;;;;;;4094522;29;20451;-63
2023/01/19 04:28:53;;;;;;;7.47;4.57;;;-4.70;99.90;;;;;;4094961;29;20648;-63
2023/01/19 04:30:53;;;;;;;8.13;4.13;;;-4.70;99.90;;;;;;4095908;29;20419;-63
2023/01/19 04:32:55;;;;;;;7.93;4.53;;;-4.70;99.90;;;;;;4095326;29;20192;-63
2023/01/19 04:34:55;;;;;;;7.03;4.43;;;-4.80;99.90;;;;;;4110621;28;20193;-63
2023/01/19 04:36:56;;;;;;;6.67;4.20;;;-4.90;99.90;;;;;;4144514;28;20531;-63
2023/01/19 04:38:57;;;;;;;6.83;4.67;;;-5.00;99.90;;;;;;4161739;28;20182;-63
2023/01/19 04:40:57;;;;;;;6.77;4.33;;;-5.00;99.90;;;;;;4161909;28;20562;-63
2023/01/19 04:42:58;;;;;;;5.97;3.90;;;-5.00;99.90;;;;;;4161824;28;20961;-63
2023/01/19 04:44:59;;;;;;;9.93;4.83;;;-5.10;99.90;;;;;;4161539;28;20204;-62
2023/01/19 04:47:00;;;;;;;8.67;4.40;;;-5.20;99.90;;;;;;4161861;28;20197;-63
2023/01/19 04:49:01;;;;;;;9.40;3.70;;;-5.30;99.90;;;;;;4161779;28;20189;-61
2023/01/19 04:51:01;;;;;;;7.20;3.73;;;-5.40;99.90;;;;;;4143975;28;20428;-62
2023/01/19 04:53:02;;;;;;;7.20;4.07;;;-5.50;99.90;;;;;;4161579;28;20191;-62
2023/01/19 04:55:05;;;;;;;8.37;4.57;;;-5.70;99.90;;;;;;4161708;28;20212;-62
2023/01/19 04:57:06;;;;;;;6.47;3.95;;;-5.80;99.90;;;;;;4162178;28;20219;-62
2023/01/19 04:59:06;;;;;;;10.53;5.50;;;-5.90;99.90;;;;;;4161638;28;20222;-62
2023/01/19 05:01:09;;;;;;;8.37;4.83;;;-6.00;99.90;;;;;;4166870;28;20238;-61
2023/01/19 05:03:09;;;;;;;11.00;5.25;;;-6.00;99.90;;;;;;4178558;28;20204;-62
2023/01/19 05:05:10;;;;;;;8.20;4.40;;;-6.10;99.90;;;;;;4177934;28;20223;-63
2023/01/19 05:07:11;;;;;;;10.47;5.23;;;-6.20;99.90;;;;;;4160132;28;20687;-62
2023/01/19 05:09:14;;;;;;;9.67;6.10;;;-6.20;99.90;;;;;;4178257;28;20426;-63
2023/01/19 05:11:14;;;;;;;9.00;5.00;;;-6.20;99.90;;;;;;4178185;28;20180;-63
2023/01/19 05:13:15;;;;;;;10.03;5.73;;;-6.20;99.90;;;;;;4183718;28;20465;-64
2023/01/19 05:15:16;;;;;;;11.13;6.60;;;-6.30;99.90;;;;;;4183900;28;20230;-62
2023/01/19 05:17:16;;;;;;;8.20;5.40;;;-6.30;99.90;;;;;;4179229;28;20258;-62
2023/01/19 05:19:17;;;;;;;10.20;5.47;;;-6.30;99.90;;;;;;4160830;28;20661;-62
2023/01/19 05:21:18;;;;;;;9.13;5.40;;;-6.30;99.90;;;;;;4160575;28;20208;-62
2023/01/19 05:23:19;;;;;;;11.38;6.30;;;-6.40;99.90;;;;;;4177942;28;20235;-63
2023/01/19 05:25:20;;;;;;;14.53;6.57;;;-6.50;99.90;;;;;;4180664;28;20240;-62
2023/01/19 05:27:20;;;;;;;10.30;5.90;;;-6.50;99.90;;;;;;4151021;28;20241;-63
2023/01/19 05:29:21;;;;;;;10.20;6.13;;;-6.70;99.90;;;;;;4179094;28;20673;-62
2023/01/19 05:31:22;;;;;;;10.15;5.72;;;-6.80;99.90;;;;;;4146748;28;20189;-62
2023/01/19 05:33:24;;;;;;;11.57;6.50;;;-6.80;99.90;;;;;;4180866;28;20188;-62
2023/01/19 05:35:24;;;;;;;9.48;5.55;;;-6.80;99.90;;;;;;4180873;28;20679;-62
2023/01/19 05:37:25;;;;;;;12.53;6.80;;;-6.90;99.90;;;;;;4180913;28;20220;-62
2023/01/19 05:39:26;;;;;;;14.33;7.63;;;-6.90;99.90;;;;;;4180956;28;20172;-63
2023/01/19 05:41:26;;;;;;;10.67;5.90;;;-7.10;99.90;;;;;;4181037;28;20184;-63
2023/01/19 05:43:27;;;;;;;10.83;5.47;;;-7.10;99.90;;;;;;4180487;28;20218;-63
2023/01/19 05:45:28;;;;;;;9.00;5.17;;;-7.00;99.90;;;;;;4162456;28;20181;-62
2023/01/19 05:47:29;;;;;;;9.87;5.37;;;-7.00;99.90;;;;;;4180329;28;20196;-61
2023/01/19 05:49:30;;;;;;;7.75;4.15;;;-6.70;99.90;;;;;;4179057;28;20180;-63
2023/01/19 05:51:34;;;;;;;7.63;4.93;;;-6.60;99.90;;;;;;4181139;28;20185;-63
2023/01/19 05:53:34;;;;;;;22.73;13.45;;;-6.50;99.90;;;;;;4163206;28;20184;-62
2023/01/19 05:55:35;;;;;;;15.87;9.70;;;-6.30;99.90;;;;;;4180454;28;20828;-63
2023/01/19 05:57:36;;;;;;;13.30;7.73;;;-6.30;99.90;;;;;;4162577;28;20296;-62
2023/01/19 05:59:36;;;;;;;12.77;6.70;;;-6.30;99.90;;;;;;4180374;28;20179;-62
2023/01/19 06:01:37;;;;;;;12.67;6.63;;;-6.20;99.90;;;;;;4180208;28;20191;-64
2023/01/19 06:03:38;;;;;;;12.50;5.97;;;-6.30;99.90;;;;;;4180065;28;20307;-63
2023/01/19 06:05:39;;;;;;;12.50;6.28;;;-6.30;99.90;;;;;;4180275;28;20573;-64
2023/01/19 06:07:40;;;;;;;10.67;6.17;;;-6.40;99.90;;;;;;4180395;28;20212;-65
2023/01/19 06:09:40;;;;;;;13.17;6.50;;;-6.50;99.90;;;;;;4180515;28;20173;-64
2023/01/19 06:11:41;;;;;;;12.90;8.70;;;-6.60;99.90;;;;;;4180310;28;20171;-63
2023/01/19 06:13:42;;;;;;;35.27;17.20;;;-6.70;99.90;;;;;;4179972;28;20241;-64
2023/01/19 06:15:43;;;;;;;35.13;18.17;;;-6.90;99.90;;;;;;4125873;28;20633;-63
2023/01/19 06:17:44;;;;;;;23.77;12.27;;;-6.90;99.90;;;;;;4096525;29;20621;-64
2023/01/19 06:19:45;;;;;;;28.97;15.20;;;-7.00;99.90;;;;;;4096668;29;20196;-63
2023/01/19 06:21:50;;;;;;;33.87;16.40;;;-7.10;99.90;;;;;;4096698;29;20190;-64
2023/01/19 06:23:51;;;;;;;46.65;24.00;;;-7.10;99.90;;;;;;4079730;29;20216;-63
2023/01/19 06:25:52;;;;;;;33.47;18.27;;;-7.00;99.90;;;;;;4096602;29;20239;-63
2023/01/19 06:27:53;;;;;;;33.30;16.37;;;-7.00;99.90;;;;;;4122219;28;20196;-63
2023/01/19 06:29:53;;;;;;;24.20;12.87;;;-7.10;99.90;;;;;;4163432;28;20212;-64
2023/01/19 06:31:54;;;;;;;24.67;13.33;;;-7.00;99.90;;;;;;4163501;28;20204;-63
2023/01/19 06:33:55;;;;;;;17.10;8.77;;;-7.10;99.90;;;;;;4163814;28;20197;-63
2023/01/19 06:35:55;;;;;;;17.30;10.13;;;-7.20;99.90;;;;;;4162589;28;20185;-63
2023/01/19 06:37:56;;;;;;;14.10;7.17;;;-7.20;99.90;;;;;;4146164;28;20704;-63
2023/01/19 06:39:57;;;;;;;12.03;6.30;;;-7.10;99.90;;;;;;4162934;28;20185;-64
2023/01/19 06:41:57;;;;;;;8.13;5.67;;;-7.30;99.90;;;;;;4163471;28;20185;-63
2023/01/19 06:43:58;;;;;;;9.07;5.57;;;-7.40;99.90;;;;;;4163302;28;20215;-63
2023/01/19 06:45:59;;;;;;;14.80;7.97;;;-7.40;99.90;;;;;;4163469;28;20747;-62
2023/01/19 06:48:00;;;;;;;20.43;10.67;;;-7.50;99.90;;;;;;4163430;28;20305;-63
2023/01/19 06:50:01;;;;;;;14.38;7.90;;;-7.60;99.90;;;;;;4146604;28;20188;-63
2023/01/19 06:52:02;;;;;;;15.47;7.77;;;-7.60;99.90;;;;;;4163580;28;20188;-64
2023/01/19 06:54:02;;;;;;;14.90;7.80;;;-7.70;99.90;;;;;;4163318;28;20506;-63
2023/01/19 06:56:03;;;;;;;16.00;8.50;;;-7.70;99.90;;;;;;4145931;28;20299;-63
2023/01/19 06:58:05;;;;;;;17.50;7.40;;;-7.60;99.90;;;;;;4163865;28;20216;-63
2023/01/19 07:00:07;;;;;;;9.60;4.88;;;-7.40;99.90;;;;;;4163126;28;20638;-62
2023/01/19 07:02:10;;;;;;;9.32;5.13;;;-7.40;99.90;;;;;;4163221;28;20216;-63
2023/01/19 07:04:13;;;;;;;12.05;5.85;;;-7.20;99.90;;;;;;4145620;28;20332;-63
2023/01/19 07:06:13;;;;;;;12.02;5.03;;;-7.20;99.90;;;;;;4163409;28;20658;-64
2023/01/19 07:08:14;;;;;;;9.13;4.10;;;-7.20;99.90;;;;;;4163197;28;20204;-64
2023/01/19 07:10:15;;;;;;;8.43;4.80;;;-7.00;99.90;;;;;;4162709;28;20239;-64
2023/01/19 07:12:16;;;;;;;5.73;4.20;;;-7.00;99.90;;;;;;4165129;28;20181;-63
2023/01/19 07:14:16;;;;;;;6.73;4.13;;;-6.90;99.90;;;;;;4169755;28;20177;-63
2023/01/19 07:16:17;;;;;;;5.57;3.37;;;-6.70;99.90;;;;;;4163600;28;20254;-64
2023/01/19 07:18:18;;;;;;;6.40;3.87;;;-6.60;99.90;;;;;;4161655;28;20209;-62
2023/01/19 07:20:18;;;;;;;8.50;3.20;;;-6.20;99.90;;;;;;4109729;28;20187;-63
2023/01/19 07:22:19;;;;;;;6.90;3.37;;;-6.00;99.90;;;;;;4096273;29;20254;-63
2023/01/19 07:24:20;;;;;;;6.53;3.23;;;-5.80;99.90;;;;;;4095927;29;20216;-63
2023/01/19 07:26:23;;;;;;;5.83;3.50;;;-5.70;99.90;;;;;;4096052;29;20187;-63
2023/01/19 07:28:24;;;;;;;4.73;3.07;;;-5.40;99.90;;;;;;4095929;29;20245;-62
2023/01/19 07:30:25;;;;;;;7.87;3.80;;;-5.30;99.90;;;;;;4095858;29;20518;-62
2023/01/19 07:32:27;;;;;;;6.93;3.30;;;-5.20;99.90;;;;;;4095955;29;20243;-62
2023/01/19 07:34:28;;;;;;;3.97;2.90;;;-5.10;99.90;;;;;;4095505;29;20881;-63
2023/01/19 07:36:29;;;;;;;4.43;2.80;;;-5.00;99.90;;;;;;4095407;29;20448;-63
2023/01/19 07:38:29;;;;;;;7.03;2.90;;;-4.80;99.90;;;;;;4096060;29;20183;-63
2023/01/19 07:40:30;;;;;;;7.60;2.50;;;-4.60;99.90;;;;;;4095500;29;20191;-63
2023/01/19 07:42:31;;;;;;;2.90;2.23;;;-4.50;99.90;;;;;;4095300;29;20188;-63
2023/01/19 07:44:32;;;;;;;4.60;2.73;;;-4.40;99.90;;;;;;4095297;29;20656;-62
2023/01/19 07:46:32;;;;;;;3.53;2.53;;;-4.20;99.90;;;;;;4095323;29;20195;-63
2023/01/19 07:48:33;;;;;;;3.70;2.57;;;-4.10;99.90;;;;;;4095316;29;20557;-62
2023/01/19 07:50:34;;;;;;;3.33;2.13;;;-4.10;99.90;;;;;;4078480;29;20569;-63
2023/01/19 07:52:34;;;;;;;4.63;2.10;;;-3.90;99.90;;;;;;4095721;28;20180;-63
2023/01/19 07:54:35;;;;;;;4.37;2.33;;;-3.80;99.90;;;;;;4095785;29;20191;-62
2023/01/19 07:56:36;;;;;;;3.77;2.70;;;-3.70;99.90;;;;;;4095854;29;20193;-63
2023/01/19 07:58:38;;;;;;;4.23;2.33;;;-3.50;99.90;;;;;;4095383;29;20184;-63
2023/01/19 08:00:38;;;;;;;4.80;2.63;;;-3.40;99.90;;;;;;4095652;29;20191;-63
2023/01/19 08:02:40;;;;;;;11.60;5.50;;;-3.40;99.90;;;;;;4095306;29;20431;-62
2023/01/19 08:04:40;;;;;;;12.87;5.70;;;-3.30;99.90;;;;;;4078477;29;20218;-63
2023/01/19 08:06:44;;;;;;;10.50;6.67;;;-3.30;99.90;;;;;;4095538;29;20931;-63
2023/01/19 08:08:44;;;;;;;12.33;7.47;;;-3.30;99.90;;;;;;4078701;29;20183;-63
2023/01/19 08:10:49;;;;;;;8.67;4.97;;;-3.20;99.50;;;;;;4095660;29;20445;-63
2023/01/19 08:12:50;;;;;;;6.37;4.30;;;-3.20;99.90;;;;;;4078451;29;20184;-63
2023/01/19 08:14:51;;;;;;;6.10;3.80;;;-2.90;99.90;;;;;;4078394;29;20451;-63
2023/01/19 08:16:52;;;;;;;5.50;2.80;;;-2.70;99.90;;;;;;4095725;29;20951;-63
2023/01/19 08:18:52;;;;;;;3.63;2.20;;;-2.60;99.90;;;;;;4095185;29;20634;-63
2023/01/19 08:20:53;;;;;;;6.33;3.37;;;-2.40;99.90;;;;;;4094699;29;20563;-64
2023/01/19 08:23:01;;;;;;;7.93;4.03;;;-2.30;99.90;;;;;;4094874;29;20195;-63
2023/01/19 08:25:02;;;;;;;4.17;2.73;;;-2.20;99.90;;;;;;4104254;28;20183;-63
2023/01/19 08:27:03;;;;;;;3.57;2.30;;;-2.20;99.90;;;;;;4062522;28;21157;-64
2023/01/19 08:29:04;;;;;;;5.57;3.40;;;-2.00;98.50;;;;;;4095557;29;20520;-63
2023/01/19 08:31:05;;;;;;;7.33;3.73;;;-1.90;99.10;;;;;;4095594;29;20207;-64
2023/01/19 08:33:07;;;;;;;3.23;2.03;;;-1.70;98.30;;;;;;4095333;29;20454;-61
2023/01/19 08:35:08;;;;;;;5.33;2.40;;;-1.70;98.10;;;;;;4094995;28;20565;-61
2023/01/19 08:37:08;;;;;;;3.20;2.50;;;-1.60;99.50;;;;;;4095188;28;20466;-64
2023/01/19 08:39:11;;;;;;;3.30;2.20;;;-1.40;98.60;;;;;;4095186;29;20435;-62
2023/01/19 08:41:12;;;;;;;3.37;2.37;;;-1.10;98.80;;;;;;4095248;29;20180;-63
2023/01/19 08:43:15;;;;;;;5.10;2.43;;;-1.00;98.10;;;;;;4095275;29;20474;-62
2023/01/19 08:45:16;;;;;;;3.03;2.30;;;-0.80;96.60;;;;;;4077641;29;20477;-63
2023/01/19 08:47:16;;;;;;;4.10;2.90;;;-0.70;98.60;;;;;;4092257;28;20450;-63
2023/01/19 08:49:17;;;;;;;2.37;1.90;;;-0.40;97.80;;;;;;4094559;28;20199;-63
2023/01/19 08:51:18;;;;;;;3.83;2.57;;;-0.30;99.90;;;;;;4094188;29;20176;-61
2023/01/19 08:53:19;;;;;;;3.53;2.80;;;0.00;95.60;;;;;;4092831;29;20192;-63
2023/01/19 08:55:20;;;;;;;3.37;2.60;;;-0.10;96.40;;;;;;4093381;28;20935;-62
2023/01/19 08:57:21;;;;;;;4.07;2.80;;;0.00;93.70;;;;;;4093030;28;20536;-62
2023/01/19 08:59:21;;;;;;;5.30;2.83;;;-0.20;93.90;;;;;;4094037;28;20207;-62
2023/01/19 09:01:22;;;;;;;3.47;2.70;;;-0.30;93.40;;;;;;4097098;29;20263;-60
2023/01/19 09:03:23;;;;;;;6.00;2.67;;;-0.50;94.30;;;;;;4097331;29;20231;-62
2023/01/19 09:05:24;;;;;;;2.73;2.20;;;-0.50;97.90;;;;;;4097157;29;20241;-61
2023/01/19 09:07:24;;;;;;;2.43;1.90;;;-0.30;97.30;;;;;;4097538;29;20242;-58
2023/01/19 09:09:25;;;;;;;3.50;2.10;;;-0.30;95.10;;;;;;4097266;29;20194;-60
2023/01/19 09:11:26;;;;;;;5.47;2.30;;;-0.20;95.00;;;;;;4098994;29;20183;-61
2023/01/19 09:13:27;;;;;;;2.83;2.20;;;0.00;97.10;;;;;;4100260;29;20259;-61
2023/01/19 09:15:28;;;;;;;3.23;2.50;;;0.40;93.20;;;;;;4097903;29;20450;-60
2023/01/19 09:17:29;;;;;;;4.97;3.17;;;0.40;93.60;;;;;;4097915;29;20203;-61
2023/01/19 09:19:29;;;;;;;3.90;2.87;;;0.40;92.30;;;;;;4097597;29;20437;-60
2023/01/19 09:21:30;;;;;;;6.20;2.80;;;0.30;93.50;;;;;;4100669;28;20183;-62
2023/01/19 09:23:31;;;;;;;3.57;2.70;;;0.50;92.80;;;;;;4108273;28;20235;-61
2023/01/19 09:25:32;;;;;;;3.90;2.30;;;0.60;91.70;;;;;;4097027;29;20729;-62
2023/01/19 09:27:33;;;;;;;3.77;2.50;;;0.30;92.40;;;;;;4097334;29;20239;-60
2023/01/19 09:29:35;;;;;;;3.63;2.33;;;0.30;90.20;;;;;;4098151;29;20253;-62
2023/01/19 09:31:36;;;;;;;3.00;2.40;;;0.50;92.50;;;;;;4098707;29;20427;-61
2023/01/19 09:33:36;;;;;;;5.27;2.40;;;0.70;91.80;;;;;;4099971;29;21381;-62
2023/01/19 09:35:39;;;;;;;7.03;2.80;;;0.80;87.40;;;;;;4082666;29;20449;-61
2023/01/19 09:37:44;;;;;;;6.40;2.10;;;0.70;89.70;;;;;;4097780;29;20263;-62
2023/01/19 09:39:45;;;;;;;6.40;2.83;;;0.70;85.50;;;;;;4096925;29;20427;-62
2023/01/19 09:41:57;;;;;;;6.20;3.10;;;0.60;90.10;;;;;;4096786;29;21224;-63
2023/01/19 09:43:59;;;;;;;5.53;2.70;;;0.60;91.30;;;;;;4079514;29;20629;-62
2023/01/19 09:46:04;;;;;;;8.67;3.77;;;0.70;92.10;;;;;;4096720;29;20425;-62
2023/01/19 09:48:31;;;;;;;6.33;3.07;;;0.90;89.30;;;;;;4096752;29;20494;-62
2023/01/19 09:50:37;;;;;;;7.57;4.30;;;0.60;90.00;;;;;;4097149;29;20526;-63
2023/01/19 09:52:42;;;;;;;4.33;2.73;;;0.60;90.00;;;;;;4097143;29;20975;-63
2023/01/19 09:54:53;;;;;;;3.50;1.90;;;0.30;89.20;;;;;;4097181;29;20431;-62
2023/01/19 09:56:54;;;;;;;4.33;2.20;;;-0.10;89.10;;;;;;4096962;29;20455;-60
2023/01/19 09:58:54;;;;;;;3.17;1.90;;;-0.50;91.60;;;;;;4096701;29;20449;-60
2023/01/19 10:01:23;;;;;;;3.37;2.00;;;-0.80;92.80;;;;;;4096696;29;20184;-63
2023/01/19 10:03:23;;;;;;;3.40;1.90;;;-0.90;93.70;;;;;;4079214;29;20732;-65
2023/01/19 10:05:31;;;;;;;7.27;3.40;;;-0.90;94.70;;;;;;4096519;29;20428;-62
2023/01/19 10:07:53;;;;;;;5.13;2.83;;;-0.80;93.40;;;;;;4078303;29;20273;-63
2023/01/19 10:10:20;;;;;;;7.03;3.40;;;-0.70;93.30;;;;;;4085616;28;20878;-63
2023/01/19 10:13:07;;;;;;;4.20;2.20;;;-0.60;93.00;;;;;;4080947;28;20544;-64
2023/01/19 10:15:16;;;;;;;4.73;2.60;;;-0.40;94.20;;;;;;4081044;28;20431;-65
2023/01/19 10:17:36;;;;;;;4.13;1.83;;;0.40;93.80;;;;;;4063688;28;20560;-65
2023/01/19 10:19:44;;;;;;;2.77;2.03;;;1.20;95.20;;;;;;4063934;29;20440;-64
2023/01/19 10:21:46;;;;;;;2.37;1.93;;;2.20;92.30;;;;;;4098262;28;20423;-63
2023/01/19 10:24:17;;;;;;;6.43;3.40;;;3.00;83.50;;;;;;4063564;28;20485;-64
2023/01/19 10:26:33;;;;;;;4.63;2.20;;;3.10;76.20;;;;;;4096171;29;20439;-65
2023/01/19 10:28:37;;;;;;;3.60;2.30;;;2.70;79.30;;;;;;4063652;28;20852;-64
2023/01/19 10:30:41;;;;;;;3.33;1.87;;;2.70;81.10;;;;;;4079544;29;20519;-65
2023/01/19 10:32:43;;;;;;;3.80;1.60;;;2.70;78.90;;;;;;4079756;29;20452;-66
2023/01/19 10:34:44;;;;;;;2.53;1.40;;;2.50;78.40;;;;;;4096401;29;20434;-64
2023/01/19 10:36:48;;;;;;;2.67;1.80;;;2.60;77.30;;;;;;4079255;29;20478;-63
2023/01/19 10:38:49;;;;;;;2.63;1.60;;;2.80;77.40;;;;;;4079545;28;20254;-64
2023/01/19 10:41:12;;;;;;;1.97;1.70;;;3.50;73.40;;;;;;4096241;28;20623;-64
2023/01/19 10:43:38;;;;;;;1.60;1.50;;;3.70;72.30;;;;;;4079667;29;20295;-64
2023/01/19 10:45:39;;;;;;;4.57;2.00;;;3.80;69.60;;;;;;4096699;29;20195;-63
2023/01/19 10:47:40;;;;;;;3.70;1.70;;;4.10;70.30;;;;;;4079758;29;20300;-64
2023/01/19 10:49:42;;;;;;;3.80;1.43;;;4.50;68.80;;;;;;4096474;29;20631;-64